Huvudsida
METAR-TAF:

METAR-TAF

Flygplatser :

Ronneby Airport

Ronneby, Sverige

latitud: 56-16N, longitud: 015-17E, höjd: 58 m

Aktuellt väderrapport

Denna rapport gjordes för 33 minuter sedan, klockan 12:20 UTC
Vind 11 kt från sydväst, varierande mellan syd/sydväst och väst
Temperatur 21°C
Fuktighet 56%
Tryck 1018 hPa
Sikt 10 km eller mer
Få moln på en höjd av 4500 ft

METAR: ESDF 181220Z 23011KT 200V260 9999 FEW045 21/12 Q1018

Tid: 14:53 (12:53 UTC)

Väderprognos

Denna rapport gjordes för 1 timme och 23 minuter sedan, klockan 11:30 UTC
Prognos gäller från 18 kl. 12 UTC till 18 kl. 15 UTC
Vind 8 kt från väst/sydväst
Sikt 10 km eller mer
Inga moln under 1 500 m eller inga cumulonimbus

TAF: ESDF 181130Z 1812/1815 24008KT CAVOK

Aktuella väderrapporter och prognoser från 4000 flygplatser (METAR- och TAF-rapporter).

De tillgängliga stationerna syns som gula och röda prickar på kartan.

För musen över prickarna för att se namnen på stationerna.

Klicka sedan för att få väderrapporter och prognoser.

För att ändra kartan: Klicka på de gröna knapparna med ett svart kors på för att zooma in; den gröna knappen med ett streck på för att zooma ut; eller på de gröna pilarna för angränsande kartor.


METAR-TAF: